Time;durP1;ratioP1;P1;durP2;ratioP2;P2;SDS_P1;SDS_P2;PMS_P1;PMS_P2;Temp;Humidity;BMP_temperature;BMP_pressure;BME280_temperature;BME280_humidity;BME280_pressure;Samples;Min_cycle;Max_cycle;Signal;HPM_P1;HPM_P2
2023/09/09 00:01:34;;;;;;;7.35;4.55;;;;;;;23.72;57.05;100201.66;10312092;28;20049;-51
2023/09/09 00:06:35;;;;;;;6.57;4.53;;;;;;;23.69;56.90;100200.22;10325974;28;20064;-51
2023/09/09 00:11:37;;;;;;;4.18;3.88;;;;;;;23.57;56.95;100188.31;10320537;28;20546;-52
2023/09/09 00:16:38;;;;;;;5.70;4.85;;;;;;;23.54;56.97;100186.88;10308277;28;20181;-51
2023/09/09 00:21:39;;;;;;;7.30;4.35;;;;;;;23.52;57.17;100191.66;10315017;28;20038;-51
2023/09/09 00:26:41;;;;;;;5.40;4.90;;;;;;;23.49;57.41;100189.38;10306871;28;20466;-51
2023/09/09 00:31:44;;;;;;;6.45;4.60;;;;;;;23.46;58.17;100187.94;10310085;28;20051;-52
2023/09/09 00:36:45;;;;;;;;;;;;;;;23.43;58.01;100184.78;10298810;28;20137;-52
2023/09/09 00:41:48;;;;;;;5.22;4.53;;;;;;;23.32;57.83;100175.38;10317347;28;19926;-51
2023/09/09 00:46:51;;;;;;;;;;;;;;;23.29;58.71;100176.63;10317366;28;20053;-51
2023/09/09 00:51:53;;;;;;;4.95;4.43;;;;;;;23.20;58.30;100177.06;10308054;28;20020;-53
2023/09/09 00:57:00;;;;;;;5.88;4.53;;;;;;;23.16;57.65;100170.38;10315504;28;20399;-51
2023/09/09 01:02:02;;;;;;;5.80;4.55;;;;;;;23.12;58.04;100169.97;10309480;28;20049;-51
2023/09/09 01:07:05;;;;;;;5.13;4.60;;;;;;;23.06;57.98;100171.59;10306061;28;20251;-51
2023/09/09 01:12:11;;;;;;;5.07;4.57;;;;;;;22.99;58.27;100169.91;10314580;28;20053;-51
2023/09/09 01:17:14;;;;;;;5.13;4.18;;;;;;;22.95;58.42;100175.75;10308711;28;20082;-51
2023/09/09 01:22:18;;;;;;;5.15;4.65;;;;;;;22.92;58.68;100173.47;10302850;28;20054;-53
2023/09/09 01:27:20;;;;;;;5.13;4.57;;;;;;;22.91;58.63;100174.50;10308222;28;20690;-52
2023/09/09 01:32:21;;;;;;;4.70;4.20;;;;;;;22.90;58.64;100178.25;10311366;28;20042;-52
2023/09/09 01:37:23;;;;;;;5.18;4.72;;;;;;;22.87;58.40;100175.13;10316990;28;20061;-51
2023/09/09 01:42:24;;;;;;;5.40;4.28;;;;;;;22.81;58.77;100171.34;10307915;28;20724;-53
2023/09/09 01:47:26;;;;;;;4.60;4.07;;;;;;;22.77;59.04;100175.50;10303960;28;20072;-51
2023/09/09 01:52:27;;;;;;;6.00;4.28;;;;;;;22.70;59.06;100174.66;10311780;28;20108;-52
2023/09/09 01:57:29;;;;;;;4.85;4.45;;;;;;;22.63;59.19;100177.34;10306875;28;20058;-51
2023/09/09 02:02:31;;;;;;;4.53;4.10;;;;;;;22.58;59.46;100169.84;10306378;28;20060;-51
2023/09/09 02:07:32;;;;;;;5.30;4.80;;;;;;;22.51;59.50;100179.81;10311870;28;20053;-51
2023/09/09 02:12:34;;;;;;;5.75;5.03;;;;;;;22.48;59.65;100179.41;10305615;28;20513;-52
2023/09/09 02:17:36;;;;;;;5.45;4.95;;;;;;;22.47;60.13;100180.44;10301481;28;20788;-51
2023/09/09 02:22:38;;;;;;;6.43;4.97;;;;;;;22.24;60.11;100160.72;10319132;28;20684;-52
2023/09/09 02:27:42;;;;;;;6.53;4.68;;;;;;;22.40;60.21;100183.13;10312155;28;20644;-51
2023/09/09 02:32:45;;;;;;;5.82;5.38;;;;;;;22.33;60.53;100184.97;10321872;28;20139;-52
2023/09/09 02:37:47;;;;;;;8.02;5.57;;;;;;;22.25;61.50;100181.38;10310922;28;20041;-52
2023/09/09 02:42:48;;;;;;;6.50;5.65;;;;;;;22.15;61.37;100180.91;10310467;28;20481;-51
2023/09/09 02:47:50;;;;;;;6.22;5.68;;;;;;;22.04;62.07;100184.19;10296442;28;20735;-52
2023/09/09 02:52:51;;;;;;;5.85;5.35;;;;;;;21.95;62.72;100177.25;10289823;28;20065;-52
2023/09/09 02:57:53;;;;;;;5.80;5.30;;;;;;;21.92;62.62;100180.34;10300519;28;20751;-51
2023/09/09 03:02:54;;;;;;;6.03;5.53;;;;;;;21.92;62.78;100188.47;10304328;28;20050;-53
2023/09/09 03:07:57;;;;;;;6.47;5.85;;;;;;;21.86;62.72;100182.84;10318408;28;20157;-52
2023/09/09 03:12:59;;;;;;;7.00;5.47;;;;;;;21.63;63.13;100156.03;10305802;28;20470;-51
2023/09/09 03:18:00;;;;;;;7.00;5.70;;;;;;;21.58;63.13;100152.25;10301769;28;20061;-50
2023/09/09 03:23:02;;;;;;;6.28;5.78;;;;;;;21.76;63.37;100181.53;10301112;28;20435;-52
2023/09/09 03:28:04;;;;;;;6.38;5.78;;;;;;;21.69;63.45;100181.47;10289119;28;20057;-51
2023/09/09 03:33:05;;;;;;;5.70;5.18;;;;;;;21.69;63.52;100181.47;10310473;28;20144;-52
2023/09/09 03:38:06;;;;;;;7.20;6.13;;;;;;;21.66;64.02;100188.16;10313259;28;20061;-53
2023/09/09 03:43:08;;;;;;;6.70;6.05;;;;;;;21.61;63.93;100189.75;10307169;28;20101;-52
2023/09/09 03:48:10;;;;;;;6.13;5.53;;;;;;;21.55;64.08;100188.69;10316380;28;20073;-51
2023/09/09 03:53:11;;;;;;;6.75;5.72;;;;;;;21.52;64.37;100192.59;10308600;28;20101;-51
2023/09/09 03:58:13;;;;;;;7.15;6.40;;;;;;;21.50;64.34;100188.44;10311357;28;20407;-53
2023/09/09 04:03:14;;;;;;;6.00;5.40;;;;;;;21.42;64.06;100183.94;10302606;28;20065;-51
2023/09/09 04:08:16;;;;;;;6.97;5.97;;;;;;;21.47;64.15;100196.94;10327012;28;20493;-51
2023/09/09 04:13:17;;;;;;;6.78;6.15;;;;;;;21.43;64.40;100191.06;10318093;28;21023;-50
2023/09/09 04:18:19;;;;;;;7.05;6.28;;;;;;;21.39;64.85;100200.59;10319668;28;20049;-51
2023/09/09 04:23:38;;;;;;;6.78;6.18;;;;;;;21.39;64.85;100203.28;10316657;28;20111;-51
2023/09/09 04:28:41;;;;;;;6.82;6.22;;;;;;;21.36;65.32;100198.28;10314096;28;20083;-50
2023/09/09 04:33:42;;;;;;;6.50;5.88;;;;;;;21.31;65.03;100200.75;10305194;28;20543;-52
2023/09/09 04:38:44;;;;;;;7.00;6.40;;;;;;;21.27;65.46;100197.59;10300739;28;20068;-51
2023/09/09 04:43:45;;;;;;;8.13;7.43;;;;;;;21.21;65.76;100200.22;10315788;28;20153;-53
2023/09/09 04:48:51;;;;;;;7.20;6.50;;;;;;;21.13;65.85;100198.50;10312043;28;20050;-51
2023/09/09 04:53:53;;;;;;;7.82;7.07;;;;;;;21.05;66.19;100213.00;10330024;28;20050;-52
2023/09/09 04:58:55;;;;;;;7.35;6.75;;;;;;;20.97;66.22;100205.00;10305572;28;20064;-51
2023/09/09 05:03:57;;;;;;;7.38;6.60;;;;;;;20.94;66.24;100210.78;10308155;28;20058;-51
2023/09/09 05:08:59;;;;;;;7.32;6.63;;;;;;;20.88;66.48;100215.09;10304705;28;20689;-51
2023/09/09 05:14:00;;;;;;;8.02;6.72;;;;;;;20.87;66.73;100220.72;10289079;28;20126;-53
2023/09/09 05:19:03;;;;;;;7.45;6.85;;;;;;;20.82;67.08;100218.56;10288355;28;20084;-55
2023/09/09 05:24:04;;;;;;;8.00;7.28;;;;;;;20.78;67.28;100228.97;10298365;28;20074;-53
2023/09/09 05:29:06;;;;;;;8.52;7.57;;;;;;;20.80;67.34;100226.88;10295322;28;20372;-52
2023/09/09 05:34:07;;;;;;;7.28;6.65;;;;;;;20.82;67.44;100227.56;10302805;28;20053;-53
2023/09/09 05:39:09;;;;;;;7.60;6.97;;;;;;;20.87;67.40;100228.81;10296910;28;20056;-53
2023/09/09 05:44:10;;;;;;;7.30;6.55;;;;;;;20.88;67.56;100233.22;10304168;28;20069;-55
2023/09/09 05:49:12;;;;;;;6.63;5.93;;;;;;;20.83;67.36;100221.09;10296280;28;20054;-53
2023/09/09 05:54:32;;;;;;;8.07;6.47;;;;;;;20.92;67.40;100232.63;10302342;28;20065;-52
2023/09/09 05:59:34;;;;;;;8.57;6.70;;;;;;;20.89;67.57;100229.50;10300493;28;21175;-52
2023/09/09 06:04:35;;;;;;;7.55;5.70;;;;;;;20.90;68.15;100228.47;10303708;28;20057;-52
2023/09/09 06:09:37;;;;;;;6.72;6.03;;;;;;;21.10;67.53;100244.91;10303639;28;20508;-52
2023/09/09 06:14:38;;;;;;;6.50;5.82;;;;;;;21.12;66.52;100254.50;10287193;28;20100;-51
2023/09/09 06:19:40;;;;;;;5.85;5.35;;;;;;;20.95;67.18;100226.00;10320424;28;20084;-53
2023/09/09 06:24:42;;;;;;;6.20;5.60;;;;;;;21.33;66.36;100258.22;10291151;28;20054;-53
2023/09/09 06:29:43;;;;;;;6.20;5.60;;;;;;;21.48;66.78;100259.00;10290460;28;20488;-52
2023/09/09 06:34:44;;;;;;;6.13;5.28;;;;;;;21.50;65.51;100248.84;10296688;28;20474;-53
2023/09/09 06:39:46;;;;;;;6.90;6.05;;;;;;;21.71;65.25;100263.41;10289923;28;20280;-52
2023/09/09 06:44:48;;;;;;;7.00;6.25;;;;;;;21.87;64.94;100271.22;10295730;28;20737;-50
2023/09/09 06:49:50;;;;;;;9.98;6.65;;;;;;;22.03;64.92;100274.66;10294633;28;20057;-51
2023/09/09 06:54:53;;;;;;;8.63;5.88;;;;;;;22.19;64.17;100276.22;10298489;28;20226;-51
2023/09/09 06:59:55;;;;;;;6.47;5.47;;;;;;;22.34;64.14;100281.53;10295241;28;20050;-50
2023/09/09 07:04:56;;;;;;;7.40;5.38;;;;;;;22.47;62.82;100281.59;10295915;28;20065;-49
2023/09/09 07:09:58;;;;;;;8.13;5.88;;;;;;;22.47;62.05;100273.47;10296551;28;20139;-50
2023/09/09 07:15:00;;;;;;;7.25;5.28;;;;;;;22.59;62.46;100282.72;10295477;28;20053;-49
2023/09/09 07:20:03;;;;;;;6.90;4.80;;;;;;;22.76;61.90;100285.91;10303183;28;20768;-55
2023/09/09 07:25:05;;;;;;;5.05;4.50;;;;;;;22.86;61.42;100280.09;10296432;28;20053;-50
2023/09/09 07:30:09;;;;;;;5.38;4.47;;;;;;;23.04;60.77;100286.84;10289833;28;20065;-49
2023/09/09 07:35:10;;;;;;;5.72;5.15;;;;;;;23.16;60.32;100277.06;10303675;28;20066;-49
2023/09/09 07:40:12;;;;;;;5.55;4.43;;;;;;;23.28;59.34;100283.59;10298274;28;20064;-49
2023/09/09 07:45:13;;;;;;;5.20;4.53;;;;;;;23.46;59.08;100284.84;10297957;28;20061;-49
2023/09/09 07:50:15;;;;;;;4.95;4.47;;;;;;;23.64;57.80;100287.81;10287036;28;21277;-49
2023/09/09 07:55:16;;;;;;;7.30;4.70;;;;;;;23.68;57.49;100277.34;10295552;28;20049;-49
2023/09/09 08:00:17;;;;;;;8.73;5.10;;;;;;;23.77;56.74;100286.13;10304487;28;20807;-50
2023/09/09 08:05:19;;;;;;;6.85;5.18;;;;;;;23.86;57.07;100279.47;10289318;28;20139;-50
2023/09/09 08:10:21;;;;;;;6.22;5.10;;;;;;;23.95;55.98;100291.78;10300352;28;20330;-50
2023/09/09 08:15:22;;;;;;;5.35;4.85;;;;;;;23.94;56.94;100292.00;10297906;28;20080;-51
2023/09/09 08:20:41;;;;;;;5.57;4.85;;;;;;;24.05;56.88;100280.50;10314679;28;20038;-49
2023/09/09 08:25:43;;;;;;;5.40;4.90;;;;;;;24.14;56.15;100281.06;10305834;28;20077;-49
2023/09/09 08:30:44;;;;;;;5.45;4.57;;;;;;;24.44;55.95;100291.47;10300794;28;20079;-48
2023/09/09 08:35:46;;;;;;;5.65;4.63;;;;;;;24.59;54.17;100293.97;10303433;28;20592;-52
2023/09/09 08:41:29;;;;;;;5.32;4.78;;;;;;;24.72;52.76;100290.38;10306930;28;20050;-53
2023/09/09 08:46:31;;;;;;;6.57;5.60;;;;;;;24.89;53.50;100288.81;10310917;28;20051;-53
2023/09/09 08:51:46;;;;;;;5.13;4.72;;;;;;;25.15;52.80;100303.34;10299259;28;20062;-52
2023/09/09 08:56:48;;;;;;;6.70;5.63;;;;;;;25.30;51.80;100306.63;10295199;28;20069;-51
2023/09/09 09:01:50;;;;;;;7.10;5.00;;;;;;;25.46;52.35;100313.44;10308646;28;20046;-51
2023/09/09 09:06:52;;;;;;;5.43;4.93;;;;;;;25.72;51.09;100309.69;10298461;28;22023;-50
2023/09/09 09:11:55;;;;;;;7.13;5.03;;;;;;;25.83;51.55;100310.00;10313596;28;20057;-52
2023/09/09 09:16:57;;;;;;;7.43;6.00;;;;;;;25.99;50.78;100309.47;10305229;28;20477;-54
2023/09/09 09:21:59;;;;;;;5.25;4.80;;;;;;;26.25;50.89;100307.53;10304613;28;21281;-50
2023/09/09 09:27:09;;;;;;;5.65;5.15;;;;;;;26.46;50.46;100298.91;10306634;28;20801;-50
2023/09/09 09:32:12;;;;;;;6.25;5.38;;;;;;;26.72;49.53;100293.38;10298883;28;20054;-52
2023/09/09 09:37:15;;;;;;;5.80;5.30;;;;;;;26.90;50.19;100292.53;10308054;28;20051;-51
2023/09/09 09:42:16;;;;;;;5.57;5.07;;;;;;;27.07;49.83;100279.91;10290138;28;20050;-51
2023/09/09 09:47:18;;;;;;;6.88;5.95;;;;;;;27.27;49.55;100287.78;10304272;28;20058;-51
2023/09/09 09:52:24;;;;;;;5.90;5.40;;;;;;;27.45;48.13;100289.66;10309855;28;20180;-51
2023/09/09 09:57:26;;;;;;;6.57;5.95;;;;;;;27.66;48.50;100287.44;10301906;28;20049;-51
2023/09/09 10:02:28;;;;;;;10.13;5.50;;;;;;;27.90;48.17;100273.78;10296826;28;20406;-56
2023/09/09 10:07:32;;;;;;;6.13;5.50;;;;;;;28.13;47.05;100273.78;10313018;28;20134;-62
2023/09/09 10:12:52;;;;;;;6.00;5.40;;;;;;;28.37;46.74;100279.22;10303007;28;20180;-60
2023/09/09 10:17:54;;;;;;;6.10;5.50;;;;;;;28.73;45.96;100266.31;10304825;28;20046;-59
2023/09/09 10:22:59;;;;;;;6.82;5.40;;;;;;;28.89;46.39;100271.00;10306211;28;20131;-58
2023/09/09 10:28:03;;;;;;;5.68;5.05;;;;;;;29.09;44.97;100266.97;10301406;28;20050;-59
2023/09/09 10:33:06;;;;;;;7.30;5.85;;;;;;;29.35;44.74;100273.78;10305777;28;20049;-58
2023/09/09 10:38:11;;;;;;;6.25;5.65;;;;;;;29.57;43.85;100259.34;10306550;28;20052;-57
2023/09/09 10:43:13;;;;;;;6.28;5.40;;;;;;;29.78;43.47;100264.03;10297105;28;20049;-60
2023/09/09 10:48:20;;;;;;;5.72;5.18;;;;;;;29.93;43.18;100247.00;10303626;28;20080;-57
2023/09/09 10:53:29;;;;;;;5.90;5.40;;;;;;;30.26;43.10;100256.25;10315650;28;20152;-58
2023/09/09 10:58:33;;;;;;;8.65;6.38;;;;;;;30.48;42.87;100258.22;10301967;28;20661;-62
2023/09/09 11:03:46;;;;;;;7.03;6.25;;;;;;;30.65;42.11;100255.38;10305042;28;20047;-60
2023/09/09 11:08:48;;;;;;;7.22;6.15;;;;;;;30.87;41.28;100254.50;10339635;28;20583;-60
2023/09/09 11:14:07;;;;;;;6.88;5.85;;;;;;;31.17;41.42;100245.78;10345282;28;20097;-59
2023/09/09 11:19:14;;;;;;;6.47;5.35;;;;;;;31.37;41.13;100245.94;10341702;28;20673;-59
2023/09/09 11:24:15;;;;;;;6.45;5.80;;;;;;;31.74;40.48;100241.59;10346228;28;20042;-59
2023/09/09 11:29:18;;;;;;;5.82;5.43;;;;;;;31.96;39.85;100237.88;10344534;28;20353;-59
2023/09/09 11:34:37;;;;;;;5.72;5.05;;;;;;;32.34;39.54;100233.13;10306969;28;20054;-58
2023/09/09 11:39:40;;;;;;;;;;;;;;;32.67;37.77;100247.59;10303734;28;20050;-59
2023/09/09 11:44:42;;;;;;;6.50;5.63;;;;;;;32.88;37.34;100240.19;10296146;28;19921;-60
2023/09/09 11:49:48;;;;;;;5.47;4.97;;;;;;;33.24;36.90;100241.13;10303965;28;20070;-60
2023/09/09 11:54:50;;;;;;;5.68;5.20;;;;;;;33.69;35.41;100232.25;10344289;28;20539;-58
2023/09/09 11:59:53;;;;;;;5.18;4.68;;;;;;;34.09;35.59;100239.63;10321103;28;20061;-60
2023/09/09 12:05:01;;;;;;;6.07;4.78;;;;;;;34.64;34.46;100242.47;10316590;28;20144;-60
2023/09/09 12:10:05;;;;;;;5.28;4.78;;;;;;;35.01;33.67;100215.44;10316587;28;20088;-64
2023/09/09 12:15:10;;;;;;;5.00;4.60;;;;;;;35.21;33.32;100226.34;10332046;28;20054;-63
2023/09/09 12:20:11;;;;;;;5.43;4.50;;;;;;;35.57;33.36;100214.97;10313469;28;20246;-60
2023/09/09 12:25:31;;;;;;;4.93;4.30;;;;;;;35.82;31.53;100202.03;10319079;28;20750;-59
2023/09/09 12:30:40;;;;;;;8.48;4.40;;;;;;;36.12;30.83;100208.31;10315695;28;20080;-60
2023/09/09 12:35:43;;;;;;;5.32;4.55;;;;;;;36.21;29.59;100201.00;10321774;28;20617;-61
2023/09/09 12:41:05;;;;;;;5.15;4.30;;;;;;;36.20;29.45;100198.53;10306802;28;20136;-61
2023/09/09 12:46:17;;;;;;;4.90;4.40;;;;;;;36.19;29.78;100200.47;10317679;28;20050;-60
2023/09/09 12:51:22;;;;;;;4.32;3.95;;;;;;;36.48;28.84;100199.53;10318269;28;20522;-60
2023/09/09 12:56:25;;;;;;;5.95;4.32;;;;;;;37.51;28.68;100209.06;10312368;28;20046;-61
2023/09/09 13:01:28;;;;;;;4.93;4.50;;;;;;;36.52;29.29;100203.38;10314396;28;20530;-60
2023/09/09 13:06:29;;;;;;;5.38;4.97;;;;;;;35.89;30.25;100205.25;10314510;28;20922;-60
2023/09/09 13:11:31;;;;;;;6.75;4.72;;;;;;;35.68;31.00;100212.94;10316456;28;20119;-61
2023/09/09 13:16:32;;;;;;;4.40;4.00;;;;;;;35.57;31.71;100198.38;10317843;28;20867;-64
2023/09/09 13:21:34;;;;;;;4.65;4.25;;;;;;;35.43;31.38;100200.16;10319392;28;20799;-62
2023/09/09 13:26:36;;;;;;;4.65;4.28;;;;;;;35.29;31.61;100197.25;10317935;28;20054;-59
2023/09/09 13:31:37;;;;;;;4.47;4.13;;;;;;;34.93;31.55;100185.66;10305077;28;20065;-59
2023/09/09 13:36:39;;;;;;;5.22;4.68;;;;;;;34.88;32.10;100195.63;10314215;28;20042;-59
2023/09/09 13:41:40;;;;;;;4.82;4.10;;;;;;;34.76;33.51;100195.13;10316443;28;20050;-59
2023/09/09 13:46:42;;;;;;;4.97;4.60;;;;;;;34.68;32.84;100184.66;10315134;28;20062;-58
2023/09/09 13:51:43;;;;;;;4.65;4.13;;;;;;;34.45;34.33;100181.50;10322119;28;20069;-60
2023/09/09 13:56:45;;;;;;;5.55;4.55;;;;;;;34.24;33.57;100168.88;10318944;28;20506;-59
2023/09/09 14:01:49;;;;;;;6.57;5.00;;;;;;;33.78;33.97;100172.63;10316693;28;20054;-58
2023/09/09 14:06:50;;;;;;;4.75;4.32;;;;;;;33.57;34.22;100171.84;10317527;28;20609;-59
2023/09/09 14:11:54;;;;;;;5.40;4.60;;;;;;;33.40;34.41;100172.97;10312823;28;20047;-58
2023/09/09 14:16:56;;;;;;;5.32;4.82;;;;;;;33.25;35.61;100170.22;10303052;28;20120;-59
2023/09/09 14:21:58;;;;;;;6.50;5.00;;;;;;;32.99;34.54;100161.13;10319619;28;20053;-59
2023/09/09 14:26:59;;;;;;;;;;;;;;;32.55;35.88;100159.66;10309413;28;20057;-59
2023/09/09 14:32:01;;;;;;;4.75;4.25;;;;;;;32.29;36.37;100143.06;10309576;28;19933;-58
2023/09/09 14:37:03;;;;;;;;;;;;;;;32.23;36.27;100153.25;10305843;28;20222;-58
2023/09/09 14:42:05;;;;;;;;;;;;;;;32.10;36.32;100147.38;10310926;28;20019;-60
2023/09/09 14:47:06;;;;;;;4.95;4.38;;;;;;;31.93;37.16;100140.16;10308910;28;19921;-59
2023/09/09 14:52:08;;;;;;;;;;;;;;;31.83;37.90;100134.63;10312159;28;20050;-59
2023/09/09 14:57:09;;;;;;;5.47;4.63;;;;;;;31.78;37.96;100142.84;10310406;28;21267;-59
2023/09/09 15:02:11;;;;;;;7.28;4.30;;;;;;;31.58;37.52;100132.56;10309769;28;20140;-59
2023/09/09 15:07:12;;;;;;;4.85;4.45;;;;;;;31.34;38.08;100122.75;10302432;28;20057;-58
2023/09/09 15:12:14;;;;;;;5.35;4.30;;;;;;;31.25;38.23;100129.84;10314005;28;20050;-59
2023/09/09 15:17:15;;;;;;;5.13;4.63;;;;;;;31.14;38.30;100139.13;10310120;28;20077;-58
2023/09/09 15:22:17;;;;;;;5.88;4.10;;;;;;;30.97;38.97;100133.72;10305403;28;20063;-58
2023/09/09 15:27:19;;;;;;;5.00;4.50;;;;;;;30.78;38.91;100125.06;10308373;28;20056;-59
2023/09/09 15:32:20;;;;;;;5.45;4.10;;;;;;;30.84;39.29;100137.75;10310281;28;20049;-58
2023/09/09 15:37:22;;;;;;;4.85;4.45;;;;;;;30.81;39.38;100135.50;10312103;28;20722;-58
2023/09/09 15:42:23;;;;;;;5.25;4.22;;;;;;;30.76;39.58;100135.44;10312474;28;20148;-58
2023/09/09 15:47:26;;;;;;;5.00;4.30;;;;;;;30.75;39.42;100144.81;10300881;28;20517;-58
2023/09/09 15:52:27;;;;;;;4.65;4.25;;;;;;;30.66;39.36;100150.75;10305905;28;20619;-59
2023/09/09 15:57:29;;;;;;;5.07;4.40;;;;;;;30.59;39.42;100141.88;10309157;28;20061;-59
2023/09/09 16:02:30;;;;;;;4.60;4.20;;;;;;;30.48;39.80;100142.88;10311400;28;20121;-58
2023/09/09 16:07:40;;;;;;;5.78;4.32;;;;;;;30.36;39.62;100128.47;10307356;28;20448;-58
2023/09/09 16:12:42;;;;;;;4.45;4.05;;;;;;;30.31;40.17;100142.94;10309465;28;20053;-58
2023/09/09 16:17:45;;;;;;;4.77;4.30;;;;;;;30.27;40.67;100147.28;10306048;28;20054;-58
2023/09/09 16:22:47;;;;;;;5.35;4.85;;;;;;;30.13;40.92;100130.38;10306842;28;20054;-58
2023/09/09 16:27:49;;;;;;;5.18;4.68;;;;;;;30.11;41.03;100138.03;10301643;28;20725;-58
2023/09/09 16:32:50;;;;;;;4.70;4.30;;;;;;;30.10;41.18;100147.34;10306561;28;20073;-58
2023/09/09 16:37:52;;;;;;;5.57;5.00;;;;;;;30.04;41.62;100153.88;10307597;28;20302;-58
2023/09/09 16:42:53;;;;;;;5.88;5.18;;;;;;;29.95;41.56;100151.59;10314705;28;20068;-58
2023/09/09 16:47:55;;;;;;;5.33;4.83;;;;;;;29.82;41.78;100145.66;10304124;28;20058;-59
2023/09/09 16:52:58;;;;;;;6.70;5.45;;;;;;;29.82;42.29;100160.19;10320283;28;20065;-58
2023/09/09 16:57:59;;;;;;;6.03;5.53;;;;;;;29.66;42.16;100152.78;10309631;28;20759;-58
2023/09/09 17:03:02;;;;;;;5.25;4.65;;;;;;;29.65;42.50;100171.16;10322098;28;20049;-57
2023/09/09 17:08:04;;;;;;;;;;;;;;;29.49;42.26;100175.59;10316553;28;20162;-58
2023/09/09 17:13:06;;;;;;;5.07;4.23;;;;;;;29.42;42.27;100174.94;10312827;28;19925;-58
2023/09/09 17:18:09;;;;;;;6.13;4.85;;;;;;;29.33;41.63;100182.72;10314462;28;20058;-60
2023/09/09 17:23:10;;;;;;;4.90;4.40;;;;;;;29.15;41.64;100174.75;10313927;28;20157;-58
2023/09/09 17:28:14;;;;;;;4.78;4.38;;;;;;;29.10;41.34;100189.19;10312073;28;20596;-58
2023/09/09 17:33:16;;;;;;;5.47;4.27;;;;;;;28.97;41.91;100173.06;10310341;28;20169;-59
2023/09/09 17:38:17;;;;;;;5.72;5.03;;;;;;;28.92;41.92;100177.38;10307793;28;20425;-58
2023/09/09 17:43:23;;;;;;;6.88;4.50;;;;;;;28.89;42.36;100190.75;10308461;28;20060;-57
2023/09/09 17:48:26;;;;;;;5.63;4.90;;;;;;;28.82;42.12;100188.16;10305184;28;20045;-59
2023/09/09 17:53:28;;;;;;;5.35;4.82;;;;;;;28.74;42.64;100185.81;10296919;28;20727;-59
2023/09/09 17:58:29;;;;;;;6.40;5.07;;;;;;;28.69;43.07;100196.66;10322152;28;20492;-58
2023/09/09 18:03:31;;;;;;;6.67;5.70;;;;;;;28.60;43.74;100200.88;10324745;28;20119;-59
2023/09/09 18:08:33;;;;;;;7.95;5.68;;;;;;;28.53;44.04;100206.47;10310382;28;20069;-59
2023/09/09 18:13:34;;;;;;;7.87;5.53;;;;;;;28.45;44.37;100204.09;10308065;28;20191;-59
2023/09/09 18:18:37;;;;;;;6.53;5.93;;;;;;;28.36;44.46;100207.25;10306433;28;20058;-59
2023/09/09 18:23:38;;;;;;;;;;;;;;;28.26;44.69;100209.75;10312692;28;20073;-62
2023/09/09 18:28:41;;;;;;;6.67;5.93;;;;;;;28.14;45.65;100198.84;10308806;28;19929;-58
2023/09/09 18:33:43;;;;;;;6.85;6.15;;;;;;;28.05;45.69;100208.50;10313668;28;20103;-60
2023/09/09 18:38:44;;;;;;;8.82;8.02;;;;;;;27.95;45.60;100206.31;10304303;28;20050;-60
2023/09/09 18:43:47;;;;;;;7.73;6.97;;;;;;;27.95;45.57;100216.44;10301017;28;20107;-59
2023/09/09 18:48:49;;;;;;;;;;;;;;;27.86;45.85;100225.03;10310331;28;20129;-59
2023/09/09 18:53:50;;;;;;;8.40;7.70;;;;;;;27.79;46.35;100229.78;10302374;28;19983;-59
2023/09/09 18:58:52;;;;;;;8.38;7.57;;;;;;;27.67;46.42;100226.22;10300944;28;20280;-60
2023/09/09 19:03:53;;;;;;;7.23;6.57;;;;;;;27.64;46.83;100233.00;10303816;28;20174;-59
2023/09/09 19:08:55;;;;;;;8.17;7.37;;;;;;;27.56;47.23;100233.31;10302959;28;20046;-59
2023/09/09 19:13:57;;;;;;;9.43;8.52;;;;;;;27.47;48.06;100238.34;10307972;28;20056;-59
2023/09/09 19:18:59;;;;;;;10.90;8.88;;;;;;;27.38;48.14;100233.44;10299417;28;20057;-60
2023/09/09 19:24:00;;;;;;;9.07;8.18;;;;;;;27.24;48.86;100230.06;10300373;28;20136;-60
2023/09/09 19:29:02;;;;;;;11.32;9.13;;;;;;;27.20;48.99;100234.31;10301947;28;20687;-58
2023/09/09 19:34:04;;;;;;;9.10;8.30;;;;;;;27.17;49.53;100244.66;10307155;28;20112;-59
2023/09/09 19:39:05;;;;;;;10.15;9.20;;;;;;;27.11;49.97;100247.47;10304225;28;20151;-58
2023/09/09 19:44:06;;;;;;;10.85;9.90;;;;;;;27.03;49.50;100248.66;10308410;28;20226;-59
2023/09/09 19:49:08;;;;;;;11.35;10.25;;;;;;;26.90;49.33;100254.28;10304922;28;20053;-59
2023/09/09 19:54:10;;;;;;;12.27;11.10;;;;;;;26.72;49.38;100246.97;10307877;28;20970;-61
2023/09/09 19:59:12;;;;;;;10.93;9.90;;;;;;;26.76;50.04;100265.41;10309524;28;20108;-60
2023/09/09 20:04:14;;;;;;;11.30;9.75;;;;;;;26.72;49.29;100264.22;10306906;28;20454;-59
2023/09/09 20:09:16;;;;;;;14.65;13.20;;;;;;;26.62;50.10;100261.16;10306138;28;20153;-59
2023/09/09 20:14:18;;;;;;;10.55;9.38;;;;;;;26.61;49.89;100262.22;10309604;28;20125;-59
2023/09/09 20:19:20;;;;;;;10.43;9.43;;;;;;;26.49;50.14;100244.94;10311968;28;20053;-59
2023/09/09 20:24:21;;;;;;;11.17;10.17;;;;;;;26.50;49.66;100265.69;10315476;28;20465;-59
2023/09/09 20:29:23;;;;;;;14.05;12.68;;;;;;;26.43;50.34;100269.34;10310380;28;20045;-60
2023/09/09 20:34:25;;;;;;;11.88;10.77;;;;;;;26.28;49.96;100253.34;10311172;28;20682;-60
2023/09/09 20:39:27;;;;;;;10.93;9.90;;;;;;;26.30;50.33;100266.75;10312071;28;20042;-58
2023/09/09 20:44:30;;;;;;;10.23;9.15;;;;;;;26.16;50.23;100257.91;10304808;28;20151;-59
2023/09/09 20:49:31;;;;;;;7.90;7.20;;;;;;;26.18;49.92;100265.84;10308346;28;20091;-59
2023/09/09 20:54:33;;;;;;;9.37;8.43;;;;;;;25.76;51.06;100222.81;10315099;28;20645;-58
2023/09/09 20:59:35;;;;;;;7.72;6.97;;;;;;;26.01;50.38;100269.16;10307100;28;20153;-59
2023/09/09 21:04:37;;;;;;;9.07;8.27;;;;;;;25.89;50.61;100265.50;10310426;28;20161;-59
2023/09/09 21:09:39;;;;;;;10.00;8.48;;;;;;;25.88;51.13;100272.84;10311080;28;20709;-58
2023/09/09 21:14:40;;;;;;;8.68;7.80;;;;;;;25.83;51.15;100274.56;10311528;28;20061;-59
2023/09/09 21:19:42;;;;;;;8.20;7.50;;;;;;;25.80;52.03;100275.84;10307309;28;20054;-58
2023/09/09 21:24:44;;;;;;;8.83;7.87;;;;;;;25.78;52.06;100280.69;10299036;28;20098;-59
2023/09/09 21:29:45;;;;;;;8.85;7.97;;;;;;;25.71;52.03;100279.91;10300878;28;20084;-59
2023/09/09 21:34:50;;;;;;;8.32;7.50;;;;;;;25.65;52.97;100276.19;10321057;28;20143;-59
2023/09/09 21:39:52;;;;;;;9.20;7.85;;;;;;;25.58;53.12;100275.41;10311543;28;20055;-58
2023/09/09 21:44:55;;;;;;;9.35;8.43;;;;;;;25.50;53.79;100275.69;10311873;28;20078;-59
2023/09/09 21:49:56;;;;;;;8.60;7.82;;;;;;;25.41;54.37;100273.22;10310244;28;20050;-59
2023/09/09 21:54:58;;;;;;;7.43;6.75;;;;;;;25.32;54.52;100271.00;10306130;28;20061;-58
2023/09/09 22:00:00;;;;;;;8.48;7.65;;;;;;;25.27;54.59;100279.81;10311600;28;20061;-59
2023/09/09 22:05:02;;;;;;;7.60;6.70;;;;;;;25.24;55.28;100282.97;10305746;28;20144;-60
2023/09/09 22:10:04;;;;;;;7.40;6.65;;;;;;;25.19;55.11;100277.31;10304921;28;20289;-59
2023/09/09 22:15:07;;;;;;;7.67;6.93;;;;;;;25.12;55.00;100274.66;10311257;28;21749;-58
2023/09/09 22:20:11;;;;;;;7.00;6.30;;;;;;;25.04;55.69;100281.19;10314108;28;20305;-59
2023/09/09 22:25:14;;;;;;;7.15;6.47;;;;;;;24.99;56.01;100274.72;10308501;28;20068;-59
2023/09/09 22:30:16;;;;;;;6.10;5.60;;;;;;;24.94;56.32;100286.28;10306725;28;20042;-59
2023/09/09 22:35:28;;;;;;;7.80;6.90;;;;;;;24.88;56.81;100270.81;10306015;28;20054;-58
2023/09/09 22:40:29;;;;;;;7.80;6.50;;;;;;;24.82;56.73;100277.13;10309089;28;20600;-59
2023/09/09 22:45:31;;;;;;;8.02;7.25;;;;;;;24.73;56.72;100273.00;10306907;28;20144;-59
2023/09/09 22:50:33;;;;;;;7.53;6.88;;;;;;;24.73;57.13;100273.00;10305560;28;20464;-60
2023/09/09 22:55:34;;;;;;;8.93;8.03;;;;;;;24.65;57.08;100277.63;10314482;28;20048;-58
2023/09/09 23:00:37;;;;;;;10.50;9.52;;;;;;;24.57;57.28;100269.66;10294276;28;20097;-57
2023/09/09 23:05:39;;;;;;;;;;;;;;;24.53;58.20;100273.88;10309333;28;20053;-58
2023/09/09 23:10:41;;;;;;;8.80;8.10;;;;;;;24.46;57.65;100273.06;10315521;28;20001;-59
2023/09/09 23:15:45;;;;;;;9.27;8.38;;;;;;;24.46;57.81;100283.94;10313308;28;20088;-59